sensor_id;sensor_type;location;lat;lon;timestamp;temperature;humidity
13346;DHT22;6742;48.036;15.780;2023-10-08T00:02:10;18.80;78.50
13346;DHT22;6742;48.036;15.780;2023-10-08T00:04:40;18.80;78.30
13346;DHT22;6742;48.036;15.780;2023-10-08T00:07:09;18.70;77.90
13346;DHT22;6742;48.036;15.780;2023-10-08T00:09:37;18.70;78.60
13346;DHT22;6742;48.036;15.780;2023-10-08T00:12:06;18.70;77.40
13346;DHT22;6742;48.036;15.780;2023-10-08T00:14:34;18.70;77.30
13346;DHT22;6742;48.036;15.780;2023-10-08T00:17:11;18.70;77.80
13346;DHT22;6742;48.036;15.780;2023-10-08T00:19:38;18.70;77.20
13346;DHT22;6742;48.036;15.780;2023-10-08T00:22:05;18.70;77.70
13346;DHT22;6742;48.036;15.780;2023-10-08T00:24:33;18.70;77.70
13346;DHT22;6742;48.036;15.780;2023-10-08T00:27:00;18.70;77.10
13346;DHT22;6742;48.036;15.780;2023-10-08T00:29:33;18.80;77.50
13346;DHT22;6742;48.036;15.780;2023-10-08T00:32:00;18.80;77.20
13346;DHT22;6742;48.036;15.780;2023-10-08T00:34:37;18.70;77.20
13346;DHT22;6742;48.036;15.780;2023-10-08T00:37:07;18.80;77.00
13346;DHT22;6742;48.036;15.780;2023-10-08T00:39:36;18.80;76.80
13346;DHT22;6742;48.036;15.780;2023-10-08T00:42:07;18.70;76.70
13346;DHT22;6742;48.036;15.780;2023-10-08T00:44:35;18.70;77.20
13346;DHT22;6742;48.036;15.780;2023-10-08T00:47:13;18.70;78.10
13346;DHT22;6742;48.036;15.780;2023-10-08T00:49:42;18.70;78.70
13346;DHT22;6742;48.036;15.780;2023-10-08T00:52:20;18.70;78.30
13346;DHT22;6742;48.036;15.780;2023-10-08T00:54:55;18.70;78.90
13346;DHT22;6742;48.036;15.780;2023-10-08T00:57:35;18.70;79.50
13346;DHT22;6742;48.036;15.780;2023-10-08T01:00:05;18.70;81.40
13346;DHT22;6742;48.036;15.780;2023-10-08T01:02:40;18.70;81.50
13346;DHT22;6742;48.036;15.780;2023-10-08T01:05:20;18.70;82.10
13346;DHT22;6742;48.036;15.780;2023-10-08T01:08:08;18.60;82.10
13346;DHT22;6742;48.036;15.780;2023-10-08T01:10:38;18.60;81.80
13346;DHT22;6742;48.036;15.780;2023-10-08T01:13:06;18.70;82.50
13346;DHT22;6742;48.036;15.780;2023-10-08T01:15:41;18.60;83.40
13346;DHT22;6742;48.036;15.780;2023-10-08T01:18:10;18.60;83.30
13346;DHT22;6742;48.036;15.780;2023-10-08T01:20:42;18.60;83.50
13346;DHT22;6742;48.036;15.780;2023-10-08T01:23:20;18.60;84.30
13346;DHT22;6742;48.036;15.780;2023-10-08T01:25:49;18.60;85.60
13346;DHT22;6742;48.036;15.780;2023-10-08T01:28:18;18.60;85.10
13346;DHT22;6742;48.036;15.780;2023-10-08T01:30:51;18.70;85.50
13346;DHT22;6742;48.036;15.780;2023-10-08T01:33:21;18.70;86.20
13346;DHT22;6742;48.036;15.780;2023-10-08T01:35:49;18.70;86.70
13346;DHT22;6742;48.036;15.780;2023-10-08T01:38:16;18.70;86.90
13346;DHT22;6742;48.036;15.780;2023-10-08T01:40:50;18.60;87.60
13346;DHT22;6742;48.036;15.780;2023-10-08T01:43:18;18.60;88.10
13346;DHT22;6742;48.036;15.780;2023-10-08T01:45:45;18.60;88.10
13346;DHT22;6742;48.036;15.780;2023-10-08T01:48:14;18.60;88.50
13346;DHT22;6742;48.036;15.780;2023-10-08T01:50:45;18.70;87.80
13346;DHT22;6742;48.036;15.780;2023-10-08T01:53:13;18.60;88.40
13346;DHT22;6742;48.036;15.780;2023-10-08T01:55:41;18.70;88.00
13346;DHT22;6742;48.036;15.780;2023-10-08T01:58:21;18.60;88.50
13346;DHT22;6742;48.036;15.780;2023-10-08T02:00:49;18.60;89.00
13346;DHT22;6742;48.036;15.780;2023-10-08T02:03:17;18.60;88.60
13346;DHT22;6742;48.036;15.780;2023-10-08T02:05:45;18.60;89.30
13346;DHT22;6742;48.036;15.780;2023-10-08T02:08:14;18.60;88.90
13346;DHT22;6742;48.036;15.780;2023-10-08T02:10:43;18.60;89.00
13346;DHT22;6742;48.036;15.780;2023-10-08T02:13:13;18.50;89.40
13346;DHT22;6742;48.036;15.780;2023-10-08T02:15:44;18.50;89.30
13346;DHT22;6742;48.036;15.780;2023-10-08T02:18:11;18.50;89.10
13346;DHT22;6742;48.036;15.780;2023-10-08T02:20:39;18.50;89.70
13346;DHT22;6742;48.036;15.780;2023-10-08T02:23:07;18.50;89.30
13346;DHT22;6742;48.036;15.780;2023-10-08T02:25:34;18.50;89.10
13346;DHT22;6742;48.036;15.780;2023-10-08T02:28:02;18.50;88.70
13346;DHT22;6742;48.036;15.780;2023-10-08T02:30:29;18.40;88.50
13346;DHT22;6742;48.036;15.780;2023-10-08T02:32:58;18.50;89.20
13346;DHT22;6742;48.036;15.780;2023-10-08T02:35:25;18.40;89.00
13346;DHT22;6742;48.036;15.780;2023-10-08T02:37:52;18.50;89.30
13346;DHT22;6742;48.036;15.780;2023-10-08T02:40:20;18.50;89.50
13346;DHT22;6742;48.036;15.780;2023-10-08T02:42:53;18.50;89.30
13346;DHT22;6742;48.036;15.780;2023-10-08T02:45:26;18.50;89.00
13346;DHT22;6742;48.036;15.780;2023-10-08T02:47:53;18.40;89.40
13346;DHT22;6742;48.036;15.780;2023-10-08T02:50:22;18.40;89.90
13346;DHT22;6742;48.036;15.780;2023-10-08T02:52:49;18.40;89.90
13346;DHT22;6742;48.036;15.780;2023-10-08T02:55:16;18.40;89.80
13346;DHT22;6742;48.036;15.780;2023-10-08T02:57:59;18.40;89.80
13346;DHT22;6742;48.036;15.780;2023-10-08T03:00:28;18.40;89.60
13346;DHT22;6742;48.036;15.780;2023-10-08T03:02:56;18.40;90.10
13346;DHT22;6742;48.036;15.780;2023-10-08T03:05:25;18.40;90.20
13346;DHT22;6742;48.036;15.780;2023-10-08T03:08:02;18.40;90.40
13346;DHT22;6742;48.036;15.780;2023-10-08T03:10:34;18.40;90.50
13346;DHT22;6742;48.036;15.780;2023-10-08T03:13:01;18.40;90.40
13346;DHT22;6742;48.036;15.780;2023-10-08T03:15:31;18.40;90.30
13346;DHT22;6742;48.036;15.780;2023-10-08T03:18:05;18.40;90.30
13346;DHT22;6742;48.036;15.780;2023-10-08T03:20:37;18.40;90.60
13346;DHT22;6742;48.036;15.780;2023-10-08T03:23:10;18.40;90.50
13346;DHT22;6742;48.036;15.780;2023-10-08T03:25:53;18.40;90.70
13346;DHT22;6742;48.036;15.780;2023-10-08T03:28:24;18.40;90.80
13346;DHT22;6742;48.036;15.780;2023-10-08T03:30:53;18.40;90.90
13346;DHT22;6742;48.036;15.780;2023-10-08T03:33:29;18.40;90.90
13346;DHT22;6742;48.036;15.780;2023-10-08T03:36:01;18.40;91.00
13346;DHT22;6742;48.036;15.780;2023-10-08T03:38:38;18.40;90.80
13346;DHT22;6742;48.036;15.780;2023-10-08T03:41:16;18.40;90.70
13346;DHT22;6742;48.036;15.780;2023-10-08T03:43:44;18.40;91.10
13346;DHT22;6742;48.036;15.780;2023-10-08T03:46:19;18.40;90.80
13346;DHT22;6742;48.036;15.780;2023-10-08T03:48:47;18.40;90.90
13346;DHT22;6742;48.036;15.780;2023-10-08T03:51:18;18.40;91.00
13346;DHT22;6742;48.036;15.780;2023-10-08T03:53:47;18.30;90.80
13346;DHT22;6742;48.036;15.780;2023-10-08T03:56:41;18.40;90.70
13346;DHT22;6742;48.036;15.780;2023-10-08T03:59:11;18.40;90.90
13346;DHT22;6742;48.036;15.780;2023-10-08T04:01:40;18.40;90.90
13346;DHT22;6742;48.036;15.780;2023-10-08T04:04:08;18.40;90.80
13346;DHT22;6742;48.036;15.780;2023-10-08T04:06:41;18.40;90.80
13346;DHT22;6742;48.036;15.780;2023-10-08T04:09:14;18.40;91.00
13346;DHT22;6742;48.036;15.780;2023-10-08T04:11:50;18.40;90.70
13346;DHT22;6742;48.036;15.780;2023-10-08T04:14:22;18.40;90.80
13346;DHT22;6742;48.036;15.780;2023-10-08T04:16:49;18.40;90.50
13346;DHT22;6742;48.036;15.780;2023-10-08T04:19:18;18.40;90.80
13346;DHT22;6742;48.036;15.780;2023-10-08T04:21:48;18.40;90.70
13346;DHT22;6742;48.036;15.780;2023-10-08T04:24:21;18.40;90.50
13346;DHT22;6742;48.036;15.780;2023-10-08T04:26:55;18.40;90.70
13346;DHT22;6742;48.036;15.780;2023-10-08T04:29:23;18.30;90.80
13346;DHT22;6742;48.036;15.780;2023-10-08T04:31:51;18.30;90.70
13346;DHT22;6742;48.036;15.780;2023-10-08T04:34:28;18.30;90.60
13346;DHT22;6742;48.036;15.780;2023-10-08T04:36:56;18.30;90.60
13346;DHT22;6742;48.036;15.780;2023-10-08T04:39:27;18.30;90.40
13346;DHT22;6742;48.036;15.780;2023-10-08T04:41:58;18.30;90.80
13346;DHT22;6742;48.036;15.780;2023-10-08T04:44:31;18.30;90.60
13346;DHT22;6742;48.036;15.780;2023-10-08T04:46:59;18.30;90.70
13346;DHT22;6742;48.036;15.780;2023-10-08T04:49:30;18.20;90.80
13346;DHT22;6742;48.036;15.780;2023-10-08T04:52:01;18.20;90.70
13346;DHT22;6742;48.036;15.780;2023-10-08T04:54:34;18.30;90.60
13346;DHT22;6742;48.036;15.780;2023-10-08T04:57:06;18.30;90.50
13346;DHT22;6742;48.036;15.780;2023-10-08T04:59:41;18.30;90.70
13346;DHT22;6742;48.036;15.780;2023-10-08T05:02:08;18.30;90.50
13346;DHT22;6742;48.036;15.780;2023-10-08T05:05:00;18.30;90.40
13346;DHT22;6742;48.036;15.780;2023-10-08T05:07:45;18.30;90.50
13346;DHT22;6742;48.036;15.780;2023-10-08T05:10:35;18.30;90.70
13346;DHT22;6742;48.036;15.780;2023-10-08T05:13:27;18.30;90.30
13346;DHT22;6742;48.036;15.780;2023-10-08T05:15:58;18.30;90.50
13346;DHT22;6742;48.036;15.780;2023-10-08T05:18:55;18.30;90.40
13346;DHT22;6742;48.036;15.780;2023-10-08T05:21:39;18.30;90.50
13346;DHT22;6742;48.036;15.780;2023-10-08T05:24:28;18.30;90.40
13346;DHT22;6742;48.036;15.780;2023-10-08T05:27:04;18.30;90.50
13346;DHT22;6742;48.036;15.780;2023-10-08T05:30:03;18.40;90.40
13346;DHT22;6742;48.036;15.780;2023-10-08T05:32:41;18.40;90.80
13346;DHT22;6742;48.036;15.780;2023-10-08T05:35:31;18.40;90.80
13346;DHT22;6742;48.036;15.780;2023-10-08T05:38:15;18.40;90.50
13346;DHT22;6742;48.036;15.780;2023-10-08T05:40:50;18.40;90.70
13346;DHT22;6742;48.036;15.780;2023-10-08T05:43:46;18.40;90.70
13346;DHT22;6742;48.036;15.780;2023-10-08T05:46:39;18.40;90.70
13346;DHT22;6742;48.036;15.780;2023-10-08T05:49:14;18.40;90.70
13346;DHT22;6742;48.036;15.780;2023-10-08T05:52:08;18.40;91.00
13346;DHT22;6742;48.036;15.780;2023-10-08T05:54:54;18.30;90.90
13346;DHT22;6742;48.036;15.780;2023-10-08T05:57:42;18.40;90.50
13346;DHT22;6742;48.036;15.780;2023-10-08T06:00:23;18.40;90.70
13346;DHT22;6742;48.036;15.780;2023-10-08T06:03:07;18.40;90.60
13346;DHT22;6742;48.036;15.780;2023-10-08T06:05:37;18.40;90.80
13346;DHT22;6742;48.036;15.780;2023-10-08T06:08:11;18.40;90.90
13346;DHT22;6742;48.036;15.780;2023-10-08T06:10:40;18.50;90.80
13346;DHT22;6742;48.036;15.780;2023-10-08T06:13:14;18.50;91.10
13346;DHT22;6742;48.036;15.780;2023-10-08T06:15:46;18.50;90.80
13346;DHT22;6742;48.036;15.780;2023-10-08T06:18:29;18.60;90.90
13346;DHT22;6742;48.036;15.780;2023-10-08T06:20:56;18.60;91.00
13346;DHT22;6742;48.036;15.780;2023-10-08T06:23:25;18.60;91.80
13346;DHT22;6742;48.036;15.780;2023-10-08T06:25:54;18.60;91.20
13346;DHT22;6742;48.036;15.780;2023-10-08T06:28:26;18.60;91.20
13346;DHT22;6742;48.036;15.780;2023-10-08T06:30:54;18.50;91.10
13346;DHT22;6742;48.036;15.780;2023-10-08T06:33:23;18.60;91.60
13346;DHT22;6742;48.036;15.780;2023-10-08T06:35:56;18.70;91.50
13346;DHT22;6742;48.036;15.780;2023-10-08T06:38:28;19.00;90.90
13346;DHT22;6742;48.036;15.780;2023-10-08T06:40:57;19.30;90.30
13346;DHT22;6742;48.036;15.780;2023-10-08T06:43:27;19.30;90.10
13346;DHT22;6742;48.036;15.780;2023-10-08T06:45:54;19.10;90.60
13346;DHT22;6742;48.036;15.780;2023-10-08T06:48:24;19.00;90.70
13346;DHT22;6742;48.036;15.780;2023-10-08T06:50:52;19.10;90.70
13346;DHT22;6742;48.036;15.780;2023-10-08T06:53:23;19.70;90.00
13346;DHT22;6742;48.036;15.780;2023-10-08T06:55:50;20.40;88.80
13346;DHT22;6742;48.036;15.780;2023-10-08T06:58:22;20.90;86.90
13346;DHT22;6742;48.036;15.780;2023-10-08T07:00:51;21.40;86.40
13346;DHT22;6742;48.036;15.780;2023-10-08T07:03:20;21.70;86.50
13346;DHT22;6742;48.036;15.780;2023-10-08T07:05:49;22.10;84.10
13346;DHT22;6742;48.036;15.780;2023-10-08T07:08:24;22.50;83.20
13346;DHT22;6742;48.036;15.780;2023-10-08T07:10:53;22.70;82.20
13346;DHT22;6742;48.036;15.780;2023-10-08T07:13:22;23.00;81.70
13346;DHT22;6742;48.036;15.780;2023-10-08T07:15:52;22.70;82.00
13346;DHT22;6742;48.036;15.780;2023-10-08T07:18:19;22.40;83.00
13346;DHT22;6742;48.036;15.780;2023-10-08T07:20:51;21.80;84.80
13346;DHT22;6742;48.036;15.780;2023-10-08T07:23:20;21.10;86.50
13346;DHT22;6742;48.036;15.780;2023-10-08T07:25:54;20.60;87.60
13346;DHT22;6742;48.036;15.780;2023-10-08T07:28:28;20.30;89.20
13346;DHT22;6742;48.036;15.780;2023-10-08T07:30:57;19.90;90.20
13346;DHT22;6742;48.036;15.780;2023-10-08T07:33:27;19.80;90.50
13346;DHT22;6742;48.036;15.780;2023-10-08T07:36:02;19.70;91.00
13346;DHT22;6742;48.036;15.780;2023-10-08T07:38:38;19.50;90.90
13346;DHT22;6742;48.036;15.780;2023-10-08T07:41:04;19.30;91.20
13346;DHT22;6742;48.036;15.780;2023-10-08T07:43:32;19.30;91.70
13346;DHT22;6742;48.036;15.780;2023-10-08T07:46:00;19.20;91.50
13346;DHT22;6742;48.036;15.780;2023-10-08T07:48:27;19.10;91.60
13346;DHT22;6742;48.036;15.780;2023-10-08T07:50:56;19.10;91.70
13346;DHT22;6742;48.036;15.780;2023-10-08T07:53:23;19.00;91.80
13346;DHT22;6742;48.036;15.780;2023-10-08T07:55:51;19.00;92.10
13346;DHT22;6742;48.036;15.780;2023-10-08T07:58:18;19.00;92.30
13346;DHT22;6742;48.036;15.780;2023-10-08T08:00:45;19.00;92.30
13346;DHT22;6742;48.036;15.780;2023-10-08T08:03:22;19.00;92.10
13346;DHT22;6742;48.036;15.780;2023-10-08T08:05:50;19.10;92.00
13346;DHT22;6742;48.036;15.780;2023-10-08T08:08:22;19.40;92.00
13346;DHT22;6742;48.036;15.780;2023-10-08T08:10:53;19.50;92.30
13346;DHT22;6742;48.036;15.780;2023-10-08T08:13:24;19.20;92.10
13346;DHT22;6742;48.036;15.780;2023-10-08T08:15:54;19.10;92.10
13346;DHT22;6742;48.036;15.780;2023-10-08T08:18:25;18.90;92.70
13346;DHT22;6742;48.036;15.780;2023-10-08T08:20:59;18.80;92.90
13346;DHT22;6742;48.036;15.780;2023-10-08T08:23:28;18.70;93.30
13346;DHT22;6742;48.036;15.780;2023-10-08T08:25:56;18.70;93.40
13346;DHT22;6742;48.036;15.780;2023-10-08T08:28:37;18.70;93.30
13346;DHT22;6742;48.036;15.780;2023-10-08T08:31:05;18.60;93.40
13346;DHT22;6742;48.036;15.780;2023-10-08T08:33:40;18.70;93.30
13346;DHT22;6742;48.036;15.780;2023-10-08T08:36:23;18.70;93.30
13346;DHT22;6742;48.036;15.780;2023-10-08T08:38:50;18.70;93.40
13346;DHT22;6742;48.036;15.780;2023-10-08T08:41:18;18.70;93.90
13346;DHT22;6742;48.036;15.780;2023-10-08T08:43:48;18.60;93.70
13346;DHT22;6742;48.036;15.780;2023-10-08T08:46:25;18.60;93.80
13346;DHT22;6742;48.036;15.780;2023-10-08T08:48:56;18.60;93.70
13346;DHT22;6742;48.036;15.780;2023-10-08T08:51:24;18.60;94.10
13346;DHT22;6742;48.036;15.780;2023-10-08T08:53:51;18.60;94.10
13346;DHT22;6742;48.036;15.780;2023-10-08T08:56:19;18.60;94.10
13346;DHT22;6742;48.036;15.780;2023-10-08T08:58:49;18.50;94.40
13346;DHT22;6742;48.036;15.780;2023-10-08T09:01:17;18.40;94.50
13346;DHT22;6742;48.036;15.780;2023-10-08T09:03:45;18.40;94.90
13346;DHT22;6742;48.036;15.780;2023-10-08T09:06:15;18.40;94.60
13346;DHT22;6742;48.036;15.780;2023-10-08T09:08:42;18.40;95.00
13346;DHT22;6742;48.036;15.780;2023-10-08T09:11:15;18.40;94.90
13346;DHT22;6742;48.036;15.780;2023-10-08T09:13:42;18.40;94.90
13346;DHT22;6742;48.036;15.780;2023-10-08T09:16:13;18.50;95.10
13346;DHT22;6742;48.036;15.780;2023-10-08T09:18:42;18.50;94.80
13346;DHT22;6742;48.036;15.780;2023-10-08T09:21:15;18.50;95.00
13346;DHT22;6742;48.036;15.780;2023-10-08T09:23:49;18.40;95.20
13346;DHT22;6742;48.036;15.780;2023-10-08T09:26:17;18.40;95.40
13346;DHT22;6742;48.036;15.780;2023-10-08T09:28:45;18.40;95.60
13346;DHT22;6742;48.036;15.780;2023-10-08T09:31:14;18.30;95.70
13346;DHT22;6742;48.036;15.780;2023-10-08T09:33:43;18.30;95.60
13346;DHT22;6742;48.036;15.780;2023-10-08T09:36:10;18.30;95.80
13346;DHT22;6742;48.036;15.780;2023-10-08T09:38:46;18.30;95.80
13346;DHT22;6742;48.036;15.780;2023-10-08T09:41:14;18.30;95.80
13346;DHT22;6742;48.036;15.780;2023-10-08T09:43:41;18.20;96.20
13346;DHT22;6742;48.036;15.780;2023-10-08T09:46:15;18.20;96.00
13346;DHT22;6742;48.036;15.780;2023-10-08T09:48:48;18.20;95.80
13346;DHT22;6742;48.036;15.780;2023-10-08T09:51:16;18.10;96.30
13346;DHT22;6742;48.036;15.780;2023-10-08T09:53:52;18.10;96.20
13346;DHT22;6742;48.036;15.780;2023-10-08T09:56:24;18.10;96.40
13346;DHT22;6742;48.036;15.780;2023-10-08T09:58:52;18.00;96.30
13346;DHT22;6742;48.036;15.780;2023-10-08T10:01:19;18.10;96.30
13346;DHT22;6742;48.036;15.780;2023-10-08T10:03:48;18.10;96.70
13346;DHT22;6742;48.036;15.780;2023-10-08T10:06:17;18.00;97.00
13346;DHT22;6742;48.036;15.780;2023-10-08T10:08:45;18.00;96.80
13346;DHT22;6742;48.036;15.780;2023-10-08T10:11:16;17.90;96.80
13346;DHT22;6742;48.036;15.780;2023-10-08T10:13:43;17.90;96.90
13346;DHT22;6742;48.036;15.780;2023-10-08T10:16:16;17.90;97.30
13346;DHT22;6742;48.036;15.780;2023-10-08T10:18:44;17.90;97.40
13346;DHT22;6742;48.036;15.780;2023-10-08T10:21:26;17.90;97.10
13346;DHT22;6742;48.036;15.780;2023-10-08T10:23:55;17.80;97.30
13346;DHT22;6742;48.036;15.780;2023-10-08T10:26:25;17.70;97.60
13346;DHT22;6742;48.036;15.780;2023-10-08T10:29:19;17.70;97.80
13346;DHT22;6742;48.036;15.780;2023-10-08T10:31:48;17.70;98.00
13346;DHT22;6742;48.036;15.780;2023-10-08T10:34:20;17.70;97.80
13346;DHT22;6742;48.036;15.780;2023-10-08T10:36:49;17.70;97.60
13346;DHT22;6742;48.036;15.780;2023-10-08T10:39:22;17.70;97.80
13346;DHT22;6742;48.036;15.780;2023-10-08T10:41:57;17.70;97.90
13346;DHT22;6742;48.036;15.780;2023-10-08T10:44:27;17.70;98.00
13346;DHT22;6742;48.036;15.780;2023-10-08T10:46:56;17.70;98.10
13346;DHT22;6742;48.036;15.780;2023-10-08T10:49:37;17.60;98.50
13346;DHT22;6742;48.036;15.780;2023-10-08T10:52:14;17.60;98.50
13346;DHT22;6742;48.036;15.780;2023-10-08T10:54:44;17.60;98.30
13346;DHT22;6742;48.036;15.780;2023-10-08T10:57:26;17.60;98.40
13346;DHT22;6742;48.036;15.780;2023-10-08T11:00:02;17.60;98.60
13346;DHT22;6742;48.036;15.780;2023-10-08T11:02:44;17.60;98.70
13346;DHT22;6742;48.036;15.780;2023-10-08T11:05:15;17.60;98.80
13346;DHT22;6742;48.036;15.780;2023-10-08T11:07:46;17.60;98.70
13346;DHT22;6742;48.036;15.780;2023-10-08T11:10:14;17.60;98.50
13346;DHT22;6742;48.036;15.780;2023-10-08T11:12:43;17.60;98.70
13346;DHT22;6742;48.036;15.780;2023-10-08T11:15:12;17.50;99.10
13346;DHT22;6742;48.036;15.780;2023-10-08T11:17:41;17.30;99.60
13346;DHT22;6742;48.036;15.780;2023-10-08T11:20:23;17.20;99.70
13346;DHT22;6742;48.036;15.780;2023-10-08T11:22:50;17.20;99.80
13346;DHT22;6742;48.036;15.780;2023-10-08T11:25:22;17.10;99.90
13346;DHT22;6742;48.036;15.780;2023-10-08T11:27:55;16.90;99.90
13346;DHT22;6742;48.036;15.780;2023-10-08T11:30:27;16.80;99.90
13346;DHT22;6742;48.036;15.780;2023-10-08T11:32:57;16.70;99.90
13346;DHT22;6742;48.036;15.780;2023-10-08T11:35:25;16.60;99.90
13346;DHT22;6742;48.036;15.780;2023-10-08T11:37:58;16.50;99.90
13346;DHT22;6742;48.036;15.780;2023-10-08T11:40:27;16.50;99.90
13346;DHT22;6742;48.036;15.780;2023-10-08T11:42:56;16.40;99.90
13346;DHT22;6742;48.036;15.780;2023-10-08T11:45:24;16.40;99.90
13346;DHT22;6742;48.036;15.780;2023-10-08T11:47:52;16.30;99.90
13346;DHT22;6742;48.036;15.780;2023-10-08T11:50:25;16.30;99.90
13346;DHT22;6742;48.036;15.780;2023-10-08T11:53:02;16.10;99.90
13346;DHT22;6742;48.036;15.780;2023-10-08T11:55:31;16.10;99.90
13346;DHT22;6742;48.036;15.780;2023-10-08T11:58:02;16.20;99.90
13346;DHT22;6742;48.036;15.780;2023-10-08T12:00:36;16.10;99.90
13346;DHT22;6742;48.036;15.780;2023-10-08T12:03:10;15.90;99.90
13346;DHT22;6742;48.036;15.780;2023-10-08T12:05:38;15.70;99.90
13346;DHT22;6742;48.036;15.780;2023-10-08T12:08:13;15.70;99.90
13346;DHT22;6742;48.036;15.780;2023-10-08T12:10:41;15.70;99.90
13346;DHT22;6742;48.036;15.780;2023-10-08T12:13:10;15.70;99.90
13346;DHT22;6742;48.036;15.780;2023-10-08T12:15:37;15.70;99.90
13346;DHT22;6742;48.036;15.780;2023-10-08T12:18:06;15.70;99.90
13346;DHT22;6742;48.036;15.780;2023-10-08T12:20:39;15.70;99.90
13346;DHT22;6742;48.036;15.780;2023-10-08T12:23:09;15.60;99.90
13346;DHT22;6742;48.036;15.780;2023-10-08T12:25:37;15.20;99.90
13346;DHT22;6742;48.036;15.780;2023-10-08T12:28:05;15.00;99.90
13346;DHT22;6742;48.036;15.780;2023-10-08T12:30:33;14.90;99.90
13346;DHT22;6742;48.036;15.780;2023-10-08T12:33:07;14.90;99.90
13346;DHT22;6742;48.036;15.780;2023-10-08T12:35:39;14.90;99.90
13346;DHT22;6742;48.036;15.780;2023-10-08T12:38:06;14.80;99.90
13346;DHT22;6742;48.036;15.780;2023-10-08T12:40:35;14.90;99.90
13346;DHT22;6742;48.036;15.780;2023-10-08T12:43:13;14.70;99.90
13346;DHT22;6742;48.036;15.780;2023-10-08T12:45:46;14.60;99.90
13346;DHT22;6742;48.036;15.780;2023-10-08T12:48:19;14.60;99.90
13346;DHT22;6742;48.036;15.780;2023-10-08T12:50:46;14.60;99.90
13346;DHT22;6742;48.036;15.780;2023-10-08T12:53:20;14.70;99.90
13346;DHT22;6742;48.036;15.780;2023-10-08T12:55:50;14.60;99.90
13346;DHT22;6742;48.036;15.780;2023-10-08T12:58:21;14.60;99.90
13346;DHT22;6742;48.036;15.780;2023-10-08T13:00:52;14.60;99.90
13346;DHT22;6742;48.036;15.780;2023-10-08T13:03:25;14.70;99.90
13346;DHT22;6742;48.036;15.780;2023-10-08T13:05:56;14.70;99.90
13346;DHT22;6742;48.036;15.780;2023-10-08T13:08:29;14.70;99.90
13346;DHT22;6742;48.036;15.780;2023-10-08T13:10:57;14.40;99.90
13346;DHT22;6742;48.036;15.780;2023-10-08T13:13:26;14.40;99.90
13346;DHT22;6742;48.036;15.780;2023-10-08T13:15:55;14.40;99.90
13346;DHT22;6742;48.036;15.780;2023-10-08T13:18:25;14.50;99.90
13346;DHT22;6742;48.036;15.780;2023-10-08T13:20:53;14.50;99.90
13346;DHT22;6742;48.036;15.780;2023-10-08T13:23:20;14.50;99.90
13346;DHT22;6742;48.036;15.780;2023-10-08T13:25:49;14.50;99.90
13346;DHT22;6742;48.036;15.780;2023-10-08T13:28:20;14.60;99.90
13346;DHT22;6742;48.036;15.780;2023-10-08T13:30:48;14.50;99.90
13346;DHT22;6742;48.036;15.780;2023-10-08T13:33:19;14.50;99.90
13346;DHT22;6742;48.036;15.780;2023-10-08T13:35:48;14.40;99.90
13346;DHT22;6742;48.036;15.780;2023-10-08T13:38:16;14.40;99.90
13346;DHT22;6742;48.036;15.780;2023-10-08T13:40:46;14.40;99.90
13346;DHT22;6742;48.036;15.780;2023-10-08T13:43:26;14.40;99.90
13346;DHT22;6742;48.036;15.780;2023-10-08T13:46:00;14.40;99.90
13346;DHT22;6742;48.036;15.780;2023-10-08T13:48:32;14.40;99.90
13346;DHT22;6742;48.036;15.780;2023-10-08T13:51:00;14.40;99.90
13346;DHT22;6742;48.036;15.780;2023-10-08T13:53:32;14.40;99.90
13346;DHT22;6742;48.036;15.780;2023-10-08T13:56:02;14.30;99.90
13346;DHT22;6742;48.036;15.780;2023-10-08T13:58:30;14.30;99.90
13346;DHT22;6742;48.036;15.780;2023-10-08T14:00:57;14.20;99.90
13346;DHT22;6742;48.036;15.780;2023-10-08T14:03:26;14.10;99.90
13346;DHT22;6742;48.036;15.780;2023-10-08T14:05:58;14.10;99.90
13346;DHT22;6742;48.036;15.780;2023-10-08T14:08:29;14.10;99.90
13346;DHT22;6742;48.036;15.780;2023-10-08T14:10:56;14.10;99.90
13346;DHT22;6742;48.036;15.780;2023-10-08T14:13:28;14.10;99.90
13346;DHT22;6742;48.036;15.780;2023-10-08T14:15:57;14.00;99.90
13346;DHT22;6742;48.036;15.780;2023-10-08T14:18:24;14.00;99.90
13346;DHT22;6742;48.036;15.780;2023-10-08T14:20:54;13.90;99.90
13346;DHT22;6742;48.036;15.780;2023-10-08T14:23:23;13.90;99.90
13346;DHT22;6742;48.036;15.780;2023-10-08T14:25:52;13.70;99.90
13346;DHT22;6742;48.036;15.780;2023-10-08T14:28:28;13.70;99.90
13346;DHT22;6742;48.036;15.780;2023-10-08T14:31:08;13.40;99.90
13346;DHT22;6742;48.036;15.780;2023-10-08T14:33:41;13.30;99.90
13346;DHT22;6742;48.036;15.780;2023-10-08T14:36:09;13.30;99.90
13346;DHT22;6742;48.036;15.780;2023-10-08T14:38:55;13.30;99.90
13346;DHT22;6742;48.036;15.780;2023-10-08T14:41:39;13.40;99.90
13346;DHT22;6742;48.036;15.780;2023-10-08T14:44:24;13.40;99.90
13346;DHT22;6742;48.036;15.780;2023-10-08T14:46:51;13.30;99.90
13346;DHT22;6742;48.036;15.780;2023-10-08T14:49:20;12.90;99.90
13346;DHT22;6742;48.036;15.780;2023-10-08T14:51:48;13.00;99.90
13346;DHT22;6742;48.036;15.780;2023-10-08T14:54:16;13.10;99.90
13346;DHT22;6742;48.036;15.780;2023-10-08T14:56:43;13.10;99.90
13346;DHT22;6742;48.036;15.780;2023-10-08T14:59:11;13.20;99.90
13346;DHT22;6742;48.036;15.780;2023-10-08T15:01:38;13.20;99.90
13346;DHT22;6742;48.036;15.780;2023-10-08T15:04:05;13.30;99.90
13346;DHT22;6742;48.036;15.780;2023-10-08T15:06:36;13.30;99.90
13346;DHT22;6742;48.036;15.780;2023-10-08T15:09:04;13.40;99.90
13346;DHT22;6742;48.036;15.780;2023-10-08T15:11:35;13.40;99.90
13346;DHT22;6742;48.036;15.780;2023-10-08T15:14:02;13.40;99.90
13346;DHT22;6742;48.036;15.780;2023-10-08T15:16:35;13.40;99.90
13346;DHT22;6742;48.036;15.780;2023-10-08T15:19:02;13.30;99.90
13346;DHT22;6742;48.036;15.780;2023-10-08T15:21:30;13.30;99.90
13346;DHT22;6742;48.036;15.780;2023-10-08T15:23:58;13.30;99.90
13346;DHT22;6742;48.036;15.780;2023-10-08T15:26:31;13.40;99.90
13346;DHT22;6742;48.036;15.780;2023-10-08T15:28:59;13.40;99.90
13346;DHT22;6742;48.036;15.780;2023-10-08T15:31:27;13.30;99.90
13346;DHT22;6742;48.036;15.780;2023-10-08T15:33:54;13.30;99.90
13346;DHT22;6742;48.036;15.780;2023-10-08T15:36:21;13.30;99.90
13346;DHT22;6742;48.036;15.780;2023-10-08T15:38:48;13.40;99.90
13346;DHT22;6742;48.036;15.780;2023-10-08T15:41:15;13.40;99.90
13346;DHT22;6742;48.036;15.780;2023-10-08T15:43:42;13.40;99.90
13346;DHT22;6742;48.036;15.780;2023-10-08T15:46:11;13.20;99.90
13346;DHT22;6742;48.036;15.780;2023-10-08T15:48:38;12.90;99.90
13346;DHT22;6742;48.036;15.780;2023-10-08T15:51:05;13.00;99.90
13346;DHT22;6742;48.036;15.780;2023-10-08T15:53:32;13.10;99.90
13346;DHT22;6742;48.036;15.780;2023-10-08T15:56:00;13.10;99.90
13346;DHT22;6742;48.036;15.780;2023-10-08T15:58:27;13.20;99.90